sensor_id;sensor_type;location;lat;lon;timestamp;P1;durP1;ratioP1;P2;durP2;ratioP2
65373;SDS011;52070;53.760;9.678;2023-06-22T00:01:13;7.28;;;4.60;;
65373;SDS011;52070;53.760;9.678;2023-06-22T00:03:40;10.05;;;4.50;;
65373;SDS011;52070;53.760;9.678;2023-06-22T00:06:07;5.80;;;4.40;;
65373;SDS011;52070;53.760;9.678;2023-06-22T00:08:34;7.20;;;4.80;;
65373;SDS011;52070;53.760;9.678;2023-06-22T00:11:02;6.38;;;4.57;;
65373;SDS011;52070;53.760;9.678;2023-06-22T00:13:29;7.80;;;4.47;;
65373;SDS011;52070;53.760;9.678;2023-06-22T00:15:56;6.95;;;4.90;;
65373;SDS011;52070;53.760;9.678;2023-06-22T00:18:23;6.10;;;4.75;;
65373;SDS011;52070;53.760;9.678;2023-06-22T00:20:54;11.73;;;4.38;;
65373;SDS011;52070;53.760;9.678;2023-06-22T00:23:23;8.65;;;4.75;;
65373;SDS011;52070;53.760;9.678;2023-06-22T00:25:51;7.38;;;4.72;;
65373;SDS011;52070;53.760;9.678;2023-06-22T00:28:19;7.90;;;4.80;;
65373;SDS011;52070;53.760;9.678;2023-06-22T00:30:46;7.75;;;4.38;;
65373;SDS011;52070;53.760;9.678;2023-06-22T00:33:14;9.73;;;4.97;;
65373;SDS011;52070;53.760;9.678;2023-06-22T00:35:41;8.48;;;5.05;;
65373;SDS011;52070;53.760;9.678;2023-06-22T00:38:08;7.30;;;5.10;;
65373;SDS011;52070;53.760;9.678;2023-06-22T00:40:36;9.07;;;5.43;;
65373;SDS011;52070;53.760;9.678;2023-06-22T00:43:03;7.90;;;4.80;;
65373;SDS011;52070;53.760;9.678;2023-06-22T00:45:32;7.60;;;5.50;;
65373;SDS011;52070;53.760;9.678;2023-06-22T00:48:00;6.40;;;4.22;;
65373;SDS011;52070;53.760;9.678;2023-06-22T00:50:28;8.43;;;4.90;;
65373;SDS011;52070;53.760;9.678;2023-06-22T00:53:01;6.75;;;4.50;;
65373;SDS011;52070;53.760;9.678;2023-06-22T00:55:33;8.00;;;4.55;;
65373;SDS011;52070;53.760;9.678;2023-06-22T01:00:34;6.72;;;4.53;;
65373;SDS011;52070;53.760;9.678;2023-06-22T01:03:02;8.32;;;4.78;;
65373;SDS011;52070;53.760;9.678;2023-06-22T01:05:29;6.93;;;4.65;;
65373;SDS011;52070;53.760;9.678;2023-06-22T01:08:04;6.88;;;4.70;;
65373;SDS011;52070;53.760;9.678;2023-06-22T01:10:36;6.78;;;4.80;;
65373;SDS011;52070;53.760;9.678;2023-06-22T01:13:10;7.63;;;4.80;;
65373;SDS011;52070;53.760;9.678;2023-06-22T01:15:45;6.53;;;4.93;;
65373;SDS011;52070;53.760;9.678;2023-06-22T01:18:15;7.53;;;4.55;;
65373;SDS011;52070;53.760;9.678;2023-06-22T01:20:44;8.32;;;5.10;;
65373;SDS011;52070;53.760;9.678;2023-06-22T01:23:13;10.27;;;5.00;;
65373;SDS011;52070;53.760;9.678;2023-06-22T01:25:48;9.75;;;5.45;;
65373;SDS011;52070;53.760;9.678;2023-06-22T01:28:32;6.70;;;4.72;;
65373;SDS011;52070;53.760;9.678;2023-06-22T01:31:18;8.02;;;4.80;;
65373;SDS011;52070;53.760;9.678;2023-06-22T01:33:48;6.28;;;4.78;;
65373;SDS011;52070;53.760;9.678;2023-06-22T01:36:17;7.53;;;4.72;;
65373;SDS011;52070;53.760;9.678;2023-06-22T01:38:44;8.00;;;5.20;;
65373;SDS011;52070;53.760;9.678;2023-06-22T01:41:13;8.50;;;5.13;;
65373;SDS011;52070;53.760;9.678;2023-06-22T01:43:42;7.13;;;4.70;;
65373;SDS011;52070;53.760;9.678;2023-06-22T01:46:10;8.85;;;4.82;;
65373;SDS011;52070;53.760;9.678;2023-06-22T01:48:38;7.18;;;5.13;;
65373;SDS011;52070;53.760;9.678;2023-06-22T01:51:06;6.20;;;4.75;;
65373;SDS011;52070;53.760;9.678;2023-06-22T01:53:33;6.82;;;4.57;;
65373;SDS011;52070;53.760;9.678;2023-06-22T01:56:00;9.48;;;4.90;;
65373;SDS011;52070;53.760;9.678;2023-06-22T01:58:28;5.75;;;4.60;;
65373;SDS011;52070;53.760;9.678;2023-06-22T02:00:58;11.02;;;5.00;;
65373;SDS011;52070;53.760;9.678;2023-06-22T02:03:33;5.55;;;4.20;;
65373;SDS011;52070;53.760;9.678;2023-06-22T02:06:04;6.75;;;4.63;;
65373;SDS011;52070;53.760;9.678;2023-06-22T02:08:40;6.90;;;4.75;;
65373;SDS011;52070;53.760;9.678;2023-06-22T02:11:09;8.45;;;4.80;;
65373;SDS011;52070;53.760;9.678;2023-06-22T02:13:37;5.15;;;4.03;;
65373;SDS011;52070;53.760;9.678;2023-06-22T02:16:09;8.43;;;4.13;;
65373;SDS011;52070;53.760;9.678;2023-06-22T02:18:37;7.60;;;4.13;;
65373;SDS011;52070;53.760;9.678;2023-06-22T02:21:05;5.72;;;4.53;;
65373;SDS011;52070;53.760;9.678;2023-06-22T02:23:33;6.53;;;4.72;;
65373;SDS011;52070;53.760;9.678;2023-06-22T02:26:01;6.13;;;4.60;;
65373;SDS011;52070;53.760;9.678;2023-06-22T02:28:29;9.45;;;4.88;;
65373;SDS011;52070;53.760;9.678;2023-06-22T02:30:56;9.52;;;4.85;;
65373;SDS011;52070;53.760;9.678;2023-06-22T02:33:25;10.02;;;4.70;;
65373;SDS011;52070;53.760;9.678;2023-06-22T02:35:53;7.60;;;4.65;;
65373;SDS011;52070;53.760;9.678;2023-06-22T02:38:20;8.13;;;5.30;;
65373;SDS011;52070;53.760;9.678;2023-06-22T02:40:49;8.30;;;5.20;;
65373;SDS011;52070;53.760;9.678;2023-06-22T02:43:16;6.65;;;4.70;;
65373;SDS011;52070;53.760;9.678;2023-06-22T02:45:43;9.75;;;5.13;;
65373;SDS011;52070;53.760;9.678;2023-06-22T02:48:11;8.18;;;5.07;;
65373;SDS011;52070;53.760;9.678;2023-06-22T02:50:39;7.88;;;4.80;;
65373;SDS011;52070;53.760;9.678;2023-06-22T02:53:06;7.03;;;5.25;;
65373;SDS011;52070;53.760;9.678;2023-06-22T02:55:33;8.70;;;5.20;;
65373;SDS011;52070;53.760;9.678;2023-06-22T02:58:00;9.55;;;4.95;;
65373;SDS011;52070;53.760;9.678;2023-06-22T03:00:30;8.18;;;5.43;;
65373;SDS011;52070;53.760;9.678;2023-06-22T03:02:57;10.32;;;6.18;;
65373;SDS011;52070;53.760;9.678;2023-06-22T03:05:24;8.25;;;6.30;;
65373;SDS011;52070;53.760;9.678;2023-06-22T03:07:53;12.20;;;7.03;;
65373;SDS011;52070;53.760;9.678;2023-06-22T03:10:20;11.38;;;6.38;;
65373;SDS011;52070;53.760;9.678;2023-06-22T03:12:47;7.32;;;5.82;;
65373;SDS011;52070;53.760;9.678;2023-06-22T03:15:14;7.70;;;5.32;;
65373;SDS011;52070;53.760;9.678;2023-06-22T03:17:42;8.77;;;5.25;;
65373;SDS011;52070;53.760;9.678;2023-06-22T03:20:10;9.45;;;6.22;;
65373;SDS011;52070;53.760;9.678;2023-06-22T03:22:37;12.02;;;6.28;;
65373;SDS011;52070;53.760;9.678;2023-06-22T03:25:07;11.10;;;6.90;;
65373;SDS011;52070;53.760;9.678;2023-06-22T03:27:38;9.10;;;6.32;;
65373;SDS011;52070;53.760;9.678;2023-06-22T03:30:06;8.48;;;5.88;;
65373;SDS011;52070;53.760;9.678;2023-06-22T03:32:34;13.43;;;6.70;;
65373;SDS011;52070;53.760;9.678;2023-06-22T03:35:01;10.65;;;6.38;;
65373;SDS011;52070;53.760;9.678;2023-06-22T03:37:28;10.13;;;7.18;;
65373;SDS011;52070;53.760;9.678;2023-06-22T03:39:55;11.38;;;7.13;;
65373;SDS011;52070;53.760;9.678;2023-06-22T03:42:24;12.63;;;7.95;;
65373;SDS011;52070;53.760;9.678;2023-06-22T03:44:52;10.83;;;7.13;;
65373;SDS011;52070;53.760;9.678;2023-06-22T03:47:19;10.18;;;7.55;;
65373;SDS011;52070;53.760;9.678;2023-06-22T03:49:46;12.40;;;8.02;;
65373;SDS011;52070;53.760;9.678;2023-06-22T03:52:13;12.43;;;7.70;;
65373;SDS011;52070;53.760;9.678;2023-06-22T03:54:40;13.32;;;9.38;;
65373;SDS011;52070;53.760;9.678;2023-06-22T03:57:07;17.25;;;10.48;;
65373;SDS011;52070;53.760;9.678;2023-06-22T03:59:35;17.15;;;10.38;;
65373;SDS011;52070;53.760;9.678;2023-06-22T04:02:02;13.48;;;8.85;;
65373;SDS011;52070;53.760;9.678;2023-06-22T04:04:30;15.30;;;8.90;;
65373;SDS011;52070;53.760;9.678;2023-06-22T04:06:57;13.95;;;9.65;;
65373;SDS011;52070;53.760;9.678;2023-06-22T04:09:24;14.65;;;10.02;;
65373;SDS011;52070;53.760;9.678;2023-06-22T04:11:50;19.27;;;10.10;;
65373;SDS011;52070;53.760;9.678;2023-06-22T04:14:17;17.58;;;10.90;;
65373;SDS011;52070;53.760;9.678;2023-06-22T04:16:46;16.52;;;10.43;;
65373;SDS011;52070;53.760;9.678;2023-06-22T04:19:13;17.20;;;10.32;;
65373;SDS011;52070;53.760;9.678;2023-06-22T04:21:42;14.73;;;10.77;;
65373;SDS011;52070;53.760;9.678;2023-06-22T04:24:09;15.80;;;11.48;;
65373;SDS011;52070;53.760;9.678;2023-06-22T04:26:37;17.75;;;12.48;;
65373;SDS011;52070;53.760;9.678;2023-06-22T04:29:06;19.48;;;13.05;;
65373;SDS011;52070;53.760;9.678;2023-06-22T04:31:34;17.70;;;12.25;;
65373;SDS011;52070;53.760;9.678;2023-06-22T04:34:04;19.98;;;13.02;;
65373;SDS011;52070;53.760;9.678;2023-06-22T04:36:33;17.38;;;12.32;;
65373;SDS011;52070;53.760;9.678;2023-06-22T04:39:04;18.40;;;12.75;;
65373;SDS011;52070;53.760;9.678;2023-06-22T04:41:32;21.65;;;13.35;;
65373;SDS011;52070;53.760;9.678;2023-06-22T04:44:08;20.88;;;12.57;;
65373;SDS011;52070;53.760;9.678;2023-06-22T04:46:36;18.30;;;12.32;;
65373;SDS011;52070;53.760;9.678;2023-06-22T04:49:05;16.80;;;11.68;;
65373;SDS011;52070;53.760;9.678;2023-06-22T04:51:39;18.45;;;11.82;;
65373;SDS011;52070;53.760;9.678;2023-06-22T04:54:07;17.73;;;12.55;;
65373;SDS011;52070;53.760;9.678;2023-06-22T04:56:34;16.38;;;11.45;;
65373;SDS011;52070;53.760;9.678;2023-06-22T04:59:02;17.15;;;11.65;;
65373;SDS011;52070;53.760;9.678;2023-06-22T05:01:29;16.42;;;11.15;;
65373;SDS011;52070;53.760;9.678;2023-06-22T05:03:57;20.58;;;11.23;;
65373;SDS011;52070;53.760;9.678;2023-06-22T05:06:27;15.73;;;11.07;;
65373;SDS011;52070;53.760;9.678;2023-06-22T05:08:55;16.33;;;11.25;;
65373;SDS011;52070;53.760;9.678;2023-06-22T05:11:24;21.33;;;11.75;;
65373;SDS011;52070;53.760;9.678;2023-06-22T05:13:51;16.27;;;9.90;;
65373;SDS011;52070;53.760;9.678;2023-06-22T05:16:18;15.52;;;10.52;;
65373;SDS011;52070;53.760;9.678;2023-06-22T05:18:50;15.07;;;9.98;;
65373;SDS011;52070;53.760;9.678;2023-06-22T05:21:21;19.23;;;10.48;;
65373;SDS011;52070;53.760;9.678;2023-06-22T05:23:50;14.50;;;9.60;;
65373;SDS011;52070;53.760;9.678;2023-06-22T05:26:17;16.60;;;10.27;;
65373;SDS011;52070;53.760;9.678;2023-06-22T05:28:45;16.98;;;9.80;;
65373;SDS011;52070;53.760;9.678;2023-06-22T05:31:13;17.38;;;10.27;;
65373;SDS011;52070;53.760;9.678;2023-06-22T05:33:40;16.00;;;10.68;;
65373;SDS011;52070;53.760;9.678;2023-06-22T05:36:07;16.45;;;9.88;;
65373;SDS011;52070;53.760;9.678;2023-06-22T05:38:35;14.32;;;10.30;;
65373;SDS011;52070;53.760;9.678;2023-06-22T05:41:04;16.05;;;10.00;;
65373;SDS011;52070;53.760;9.678;2023-06-22T05:43:31;15.82;;;10.32;;
65373;SDS011;52070;53.760;9.678;2023-06-22T05:46:00;16.92;;;9.25;;
65373;SDS011;52070;53.760;9.678;2023-06-22T05:48:28;13.00;;;9.00;;
65373;SDS011;52070;53.760;9.678;2023-06-22T05:50:55;20.60;;;10.43;;
65373;SDS011;52070;53.760;9.678;2023-06-22T05:53:22;17.08;;;9.93;;
65373;SDS011;52070;53.760;9.678;2023-06-22T05:55:49;15.32;;;8.82;;
65373;SDS011;52070;53.760;9.678;2023-06-22T05:58:17;13.38;;;7.90;;
65373;SDS011;52070;53.760;9.678;2023-06-22T06:00:44;13.85;;;8.65;;
65373;SDS011;52070;53.760;9.678;2023-06-22T06:03:11;14.77;;;8.77;;
65373;SDS011;52070;53.760;9.678;2023-06-22T06:08:09;18.48;;;8.70;;
65373;SDS011;52070;53.760;9.678;2023-06-22T06:10:37;13.18;;;7.70;;
65373;SDS011;52070;53.760;9.678;2023-06-22T06:13:04;15.88;;;9.02;;
65373;SDS011;52070;53.760;9.678;2023-06-22T06:15:33;14.68;;;8.35;;
65373;SDS011;52070;53.760;9.678;2023-06-22T06:18:01;15.30;;;8.05;;
65373;SDS011;52070;53.760;9.678;2023-06-22T06:20:30;14.10;;;8.55;;
65373;SDS011;52070;53.760;9.678;2023-06-22T06:22:57;13.82;;;9.13;;
65373;SDS011;52070;53.760;9.678;2023-06-22T06:25:24;14.02;;;7.97;;
65373;SDS011;52070;53.760;9.678;2023-06-22T06:27:51;17.45;;;9.98;;
65373;SDS011;52070;53.760;9.678;2023-06-22T06:30:20;13.95;;;9.40;;
65373;SDS011;52070;53.760;9.678;2023-06-22T06:32:49;12.45;;;8.50;;
65373;SDS011;52070;53.760;9.678;2023-06-22T06:35:16;10.63;;;7.93;;
65373;SDS011;52070;53.760;9.678;2023-06-22T06:37:44;11.68;;;7.65;;
65373;SDS011;52070;53.760;9.678;2023-06-22T06:40:13;12.38;;;7.95;;
65373;SDS011;52070;53.760;9.678;2023-06-22T06:42:42;9.40;;;6.82;;
65373;SDS011;52070;53.760;9.678;2023-06-22T06:45:10;10.30;;;6.72;;
65373;SDS011;52070;53.760;9.678;2023-06-22T06:47:38;10.52;;;6.20;;
65373;SDS011;52070;53.760;9.678;2023-06-22T06:50:07;9.85;;;6.40;;
65373;SDS011;52070;53.760;9.678;2023-06-22T06:52:35;7.97;;;5.60;;
65373;SDS011;52070;53.760;9.678;2023-06-22T06:55:02;8.73;;;5.30;;
65373;SDS011;52070;53.760;9.678;2023-06-22T06:57:33;8.70;;;5.22;;
65373;SDS011;52070;53.760;9.678;2023-06-22T07:00:02;11.18;;;5.05;;
65373;SDS011;52070;53.760;9.678;2023-06-22T07:02:37;6.25;;;4.43;;
65373;SDS011;52070;53.760;9.678;2023-06-22T07:05:04;8.65;;;4.03;;
65373;SDS011;52070;53.760;9.678;2023-06-22T07:07:33;7.68;;;3.85;;
65373;SDS011;52070;53.760;9.678;2023-06-22T07:10:00;7.00;;;3.47;;
65373;SDS011;52070;53.760;9.678;2023-06-22T07:12:28;5.82;;;3.58;;
65373;SDS011;52070;53.760;9.678;2023-06-22T07:15:00;5.25;;;3.13;;
65373;SDS011;52070;53.760;9.678;2023-06-22T07:17:28;9.40;;;3.08;;
65373;SDS011;52070;53.760;9.678;2023-06-22T07:19:55;4.22;;;2.90;;
65373;SDS011;52070;53.760;9.678;2023-06-22T07:22:22;4.55;;;2.60;;
65373;SDS011;52070;53.760;9.678;2023-06-22T07:24:51;4.53;;;2.50;;
65373;SDS011;52070;53.760;9.678;2023-06-22T07:27:18;5.03;;;2.40;;
65373;SDS011;52070;53.760;9.678;2023-06-22T07:29:45;4.85;;;2.40;;
65373;SDS011;52070;53.760;9.678;2023-06-22T07:32:12;4.13;;;2.92;;
65373;SDS011;52070;53.760;9.678;2023-06-22T07:34:39;5.00;;;2.22;;
65373;SDS011;52070;53.760;9.678;2023-06-22T07:37:06;4.00;;;2.15;;
65373;SDS011;52070;53.760;9.678;2023-06-22T07:39:33;2.95;;;2.40;;
65373;SDS011;52070;53.760;9.678;2023-06-22T07:42:02;3.88;;;2.20;;
65373;SDS011;52070;53.760;9.678;2023-06-22T07:44:29;4.05;;;2.60;;
65373;SDS011;52070;53.760;9.678;2023-06-22T07:46:56;3.92;;;2.42;;
65373;SDS011;52070;53.760;9.678;2023-06-22T07:49:23;4.43;;;2.83;;
65373;SDS011;52070;53.760;9.678;2023-06-22T07:51:50;3.83;;;2.10;;
65373;SDS011;52070;53.760;9.678;2023-06-22T07:54:17;3.53;;;2.22;;
65373;SDS011;52070;53.760;9.678;2023-06-22T07:56:44;6.32;;;2.45;;
65373;SDS011;52070;53.760;9.678;2023-06-22T07:59:14;4.65;;;2.40;;
65373;SDS011;52070;53.760;9.678;2023-06-22T08:01:41;4.95;;;2.40;;
65373;SDS011;52070;53.760;9.678;2023-06-22T08:04:09;3.20;;;2.15;;
65373;SDS011;52070;53.760;9.678;2023-06-22T08:06:36;6.05;;;2.70;;
65373;SDS011;52070;53.760;9.678;2023-06-22T08:09:03;5.35;;;2.58;;
65373;SDS011;52070;53.760;9.678;2023-06-22T08:11:30;4.25;;;2.30;;
65373;SDS011;52070;53.760;9.678;2023-06-22T08:13:57;2.47;;;1.98;;
65373;SDS011;52070;53.760;9.678;2023-06-22T08:16:25;5.28;;;2.35;;
65373;SDS011;52070;53.760;9.678;2023-06-22T08:18:52;4.07;;;2.17;;
65373;SDS011;52070;53.760;9.678;2023-06-22T08:21:20;5.22;;;2.30;;
65373;SDS011;52070;53.760;9.678;2023-06-22T08:23:47;2.45;;;1.98;;
65373;SDS011;52070;53.760;9.678;2023-06-22T08:26:14;3.20;;;1.98;;
65373;SDS011;52070;53.760;9.678;2023-06-22T08:28:42;2.75;;;2.10;;
65373;SDS011;52070;53.760;9.678;2023-06-22T08:31:09;5.20;;;2.70;;
65373;SDS011;52070;53.760;9.678;2023-06-22T08:33:39;2.67;;;1.83;;
65373;SDS011;52070;53.760;9.678;2023-06-22T08:36:06;4.75;;;2.05;;
65373;SDS011;52070;53.760;9.678;2023-06-22T08:38:33;2.35;;;2.08;;
65373;SDS011;52070;53.760;9.678;2023-06-22T08:41:00;3.65;;;1.98;;
65373;SDS011;52070;53.760;9.678;2023-06-22T08:43:28;3.00;;;2.50;;
65373;SDS011;52070;53.760;9.678;2023-06-22T08:45:55;3.28;;;1.98;;
65373;SDS011;52070;53.760;9.678;2023-06-22T08:48:22;4.97;;;1.98;;
65373;SDS011;52070;53.760;9.678;2023-06-22T08:50:50;1.90;;;1.80;;
65373;SDS011;52070;53.760;9.678;2023-06-22T08:53:17;4.97;;;2.13;;
65373;SDS011;52070;53.760;9.678;2023-06-22T08:55:44;3.25;;;1.95;;
65373;SDS011;52070;53.760;9.678;2023-06-22T08:58:11;4.78;;;2.33;;
65373;SDS011;52070;53.760;9.678;2023-06-22T09:00:38;2.40;;;2.00;;
65373;SDS011;52070;53.760;9.678;2023-06-22T09:03:05;2.45;;;1.80;;
65373;SDS011;52070;53.760;9.678;2023-06-22T09:05:32;4.57;;;1.85;;
65373;SDS011;52070;53.760;9.678;2023-06-22T09:08:00;3.75;;;2.15;;
65373;SDS011;52070;53.760;9.678;2023-06-22T09:10:27;5.13;;;2.25;;
65373;SDS011;52070;53.760;9.678;2023-06-22T09:12:54;3.88;;;2.00;;
65373;SDS011;52070;53.760;9.678;2023-06-22T09:15:21;5.88;;;2.28;;
65373;SDS011;52070;53.760;9.678;2023-06-22T09:17:48;2.20;;;2.00;;
65373;SDS011;52070;53.760;9.678;2023-06-22T09:20:15;3.00;;;1.60;;
65373;SDS011;52070;53.760;9.678;2023-06-22T09:22:42;3.40;;;2.10;;
65373;SDS011;52070;53.760;9.678;2023-06-22T09:25:11;4.35;;;2.03;;
65373;SDS011;52070;53.760;9.678;2023-06-22T09:27:38;3.17;;;1.90;;
65373;SDS011;52070;53.760;9.678;2023-06-22T09:30:05;5.70;;;1.83;;
65373;SDS011;52070;53.760;9.678;2023-06-22T09:32:33;3.67;;;1.77;;
65373;SDS011;52070;53.760;9.678;2023-06-22T09:35:01;5.72;;;2.00;;
65373;SDS011;52070;53.760;9.678;2023-06-22T09:37:32;3.35;;;1.90;;
65373;SDS011;52070;53.760;9.678;2023-06-22T09:39:59;5.70;;;2.25;;
65373;SDS011;52070;53.760;9.678;2023-06-22T09:42:27;5.07;;;2.00;;
65373;SDS011;52070;53.760;9.678;2023-06-22T09:44:54;7.03;;;2.00;;
65373;SDS011;52070;53.760;9.678;2023-06-22T09:47:21;2.85;;;2.00;;
65373;SDS011;52070;53.760;9.678;2023-06-22T09:49:48;3.25;;;1.70;;
65373;SDS011;52070;53.760;9.678;2023-06-22T09:52:15;4.05;;;2.20;;
65373;SDS011;52070;53.760;9.678;2023-06-22T09:54:42;4.68;;;2.17;;
65373;SDS011;52070;53.760;9.678;2023-06-22T09:57:09;3.55;;;2.55;;
65373;SDS011;52070;53.760;9.678;2023-06-22T09:59:38;4.45;;;2.30;;
65373;SDS011;52070;53.760;9.678;2023-06-22T10:02:06;6.03;;;2.40;;
65373;SDS011;52070;53.760;9.678;2023-06-22T10:04:33;6.82;;;2.60;;
65373;SDS011;52070;53.760;9.678;2023-06-22T10:07:00;4.30;;;2.58;;
65373;SDS011;52070;53.760;9.678;2023-06-22T10:09:27;4.45;;;2.28;;
65373;SDS011;52070;53.760;9.678;2023-06-22T10:11:54;3.42;;;2.28;;
65373;SDS011;52070;53.760;9.678;2023-06-22T10:14:21;8.60;;;2.20;;
65373;SDS011;52070;53.760;9.678;2023-06-22T10:16:51;4.13;;;2.38;;
65373;SDS011;52070;53.760;9.678;2023-06-22T10:19:19;6.55;;;2.85;;
65373;SDS011;52070;53.760;9.678;2023-06-22T10:21:46;4.10;;;2.83;;
65373;SDS011;52070;53.760;9.678;2023-06-22T10:24:13;6.10;;;2.78;;
65373;SDS011;52070;53.760;9.678;2023-06-22T10:26:39;5.97;;;3.00;;
65373;SDS011;52070;53.760;9.678;2023-06-22T10:29:06;9.32;;;2.85;;
65373;SDS011;52070;53.760;9.678;2023-06-22T10:31:33;4.40;;;2.72;;
65373;SDS011;52070;53.760;9.678;2023-06-22T10:34:02;6.78;;;2.78;;
65373;SDS011;52070;53.760;9.678;2023-06-22T10:36:29;5.28;;;2.70;;
65373;SDS011;52070;53.760;9.678;2023-06-22T10:38:56;5.40;;;2.83;;
65373;SDS011;52070;53.760;9.678;2023-06-22T10:41:24;3.92;;;3.00;;
65373;SDS011;52070;53.760;9.678;2023-06-22T10:43:54;10.25;;;3.25;;
65373;SDS011;52070;53.760;9.678;2023-06-22T10:46:21;6.10;;;2.83;;
65373;SDS011;52070;53.760;9.678;2023-06-22T10:48:48;4.65;;;2.28;;
65373;SDS011;52070;53.760;9.678;2023-06-22T10:51:16;3.58;;;2.50;;
65373;SDS011;52070;53.760;9.678;2023-06-22T10:53:43;3.53;;;2.42;;
65373;SDS011;52070;53.760;9.678;2023-06-22T10:56:10;6.20;;;2.90;;
65373;SDS011;52070;53.760;9.678;2023-06-22T10:58:37;3.33;;;2.47;;
65373;SDS011;52070;53.760;9.678;2023-06-22T11:01:04;4.18;;;3.13;;
65373;SDS011;52070;53.760;9.678;2023-06-22T11:03:31;4.22;;;2.70;;
65373;SDS011;52070;53.760;9.678;2023-06-22T11:05:58;5.13;;;2.72;;
65373;SDS011;52070;53.760;9.678;2023-06-22T11:08:27;3.95;;;2.10;;
65373;SDS011;52070;53.760;9.678;2023-06-22T11:10:53;5.35;;;3.00;;
65373;SDS011;52070;53.760;9.678;2023-06-22T11:13:20;5.45;;;2.83;;
65373;SDS011;52070;53.760;9.678;2023-06-22T11:15:47;4.70;;;2.92;;
65373;SDS011;52070;53.760;9.678;2023-06-22T11:18:14;3.28;;;2.83;;
65373;SDS011;52070;53.760;9.678;2023-06-22T11:20:42;4.60;;;2.70;;
65373;SDS011;52070;53.760;9.678;2023-06-22T11:23:09;5.40;;;2.83;;
65373;SDS011;52070;53.760;9.678;2023-06-22T11:25:39;4.70;;;2.60;;
65373;SDS011;52070;53.760;9.678;2023-06-22T11:28:07;5.68;;;2.80;;
65373;SDS011;52070;53.760;9.678;2023-06-22T11:30:35;3.90;;;3.00;;
65373;SDS011;52070;53.760;9.678;2023-06-22T11:33:01;3.15;;;2.83;;
65373;SDS011;52070;53.760;9.678;2023-06-22T11:35:28;3.88;;;2.60;;
65373;SDS011;52070;53.760;9.678;2023-06-22T11:37:55;5.05;;;2.85;;
65373;SDS011;52070;53.760;9.678;2023-06-22T11:40:23;4.10;;;2.50;;
65373;SDS011;52070;53.760;9.678;2023-06-22T11:42:52;4.25;;;2.50;;
65373;SDS011;52070;53.760;9.678;2023-06-22T11:45:19;3.22;;;2.70;;
65373;SDS011;52070;53.760;9.678;2023-06-22T11:47:46;6.40;;;2.95;;
65373;SDS011;52070;53.760;9.678;2023-06-22T11:50:13;5.60;;;2.83;;
65373;SDS011;52070;53.760;9.678;2023-06-22T11:52:40;5.97;;;2.58;;
65373;SDS011;52070;53.760;9.678;2023-06-22T11:55:07;4.35;;;2.70;;
65373;SDS011;52070;53.760;9.678;2023-06-22T11:57:35;5.43;;;2.60;;
65373;SDS011;52070;53.760;9.678;2023-06-22T12:00:07;3.83;;;2.65;;
65373;SDS011;52070;53.760;9.678;2023-06-22T12:02:43;4.50;;;3.10;;
65373;SDS011;52070;53.760;9.678;2023-06-22T12:05:10;4.13;;;3.17;;
65373;SDS011;52070;53.760;9.678;2023-06-22T12:07:37;5.82;;;2.63;;
65373;SDS011;52070;53.760;9.678;2023-06-22T12:10:05;4.53;;;2.88;;
65373;SDS011;52070;53.760;9.678;2023-06-22T12:12:32;4.60;;;3.00;;
65373;SDS011;52070;53.760;9.678;2023-06-22T12:14:59;3.75;;;2.88;;
65373;SDS011;52070;53.760;9.678;2023-06-22T12:17:30;5.45;;;3.25;;
65373;SDS011;52070;53.760;9.678;2023-06-22T12:19:58;5.07;;;3.05;;
65373;SDS011;52070;53.760;9.678;2023-06-22T12:22:25;3.47;;;3.10;;
65373;SDS011;52070;53.760;9.678;2023-06-22T12:24:52;4.70;;;2.95;;
65373;SDS011;52070;53.760;9.678;2023-06-22T12:27:19;5.72;;;3.17;;
65373;SDS011;52070;53.760;9.678;2023-06-22T12:29:46;6.10;;;4.00;;
65373;SDS011;52070;53.760;9.678;2023-06-22T12:32:13;6.03;;;3.50;;
65373;SDS011;52070;53.760;9.678;2023-06-22T12:34:43;5.53;;;3.67;;
65373;SDS011;52070;53.760;9.678;2023-06-22T12:39:39;5.15;;;4.13;;
65373;SDS011;52070;53.760;9.678;2023-06-22T12:42:07;3.92;;;3.33;;
65373;SDS011;52070;53.760;9.678;2023-06-22T12:44:35;5.93;;;4.10;;
65373;SDS011;52070;53.760;9.678;2023-06-22T12:47:02;6.18;;;3.90;;
65373;SDS011;52070;53.760;9.678;2023-06-22T12:49:29;4.45;;;3.70;;
65373;SDS011;52070;53.760;9.678;2023-06-22T12:51:57;5.28;;;3.72;;
65373;SDS011;52070;53.760;9.678;2023-06-22T12:54:24;5.65;;;3.15;;
65373;SDS011;52070;53.760;9.678;2023-06-22T12:56:51;9.52;;;3.60;;
65373;SDS011;52070;53.760;9.678;2023-06-22T12:59:18;5.15;;;3.83;;
65373;SDS011;52070;53.760;9.678;2023-06-22T13:01:45;4.50;;;3.60;;
65373;SDS011;52070;53.760;9.678;2023-06-22T13:04:13;4.55;;;3.72;;
65373;SDS011;52070;53.760;9.678;2023-06-22T13:06:40;4.68;;;3.70;;
65373;SDS011;52070;53.760;9.678;2023-06-22T13:09:09;10.32;;;3.95;;
65373;SDS011;52070;53.760;9.678;2023-06-22T13:11:36;4.30;;;3.80;;
65373;SDS011;52070;53.760;9.678;2023-06-22T13:14:03;5.60;;;3.63;;
65373;SDS011;52070;53.760;9.678;2023-06-22T13:16:30;6.97;;;3.63;;
65373;SDS011;52070;53.760;9.678;2023-06-22T13:18:57;3.80;;;3.40;;
65373;SDS011;52070;53.760;9.678;2023-06-22T13:21:24;5.72;;;3.47;;
65373;SDS011;52070;53.760;9.678;2023-06-22T13:23:51;6.07;;;3.67;;
65373;SDS011;52070;53.760;9.678;2023-06-22T13:26:20;4.32;;;3.70;;
65373;SDS011;52070;53.760;9.678;2023-06-22T13:28:47;3.90;;;3.40;;
65373;SDS011;52070;53.760;9.678;2023-06-22T13:31:14;5.20;;;3.65;;
65373;SDS011;52070;53.760;9.678;2023-06-22T13:33:41;3.90;;;3.50;;
65373;SDS011;52070;53.760;9.678;2023-06-22T13:36:09;5.85;;;3.70;;
65373;SDS011;52070;53.760;9.678;2023-06-22T13:38:36;5.13;;;3.50;;
65373;SDS011;52070;53.760;9.678;2023-06-22T13:41:04;5.20;;;3.22;;
65373;SDS011;52070;53.760;9.678;2023-06-22T13:43:32;4.85;;;3.67;;
65373;SDS011;52070;53.760;9.678;2023-06-22T13:45:59;7.90;;;3.30;;
65373;SDS011;52070;53.760;9.678;2023-06-22T13:48:26;6.45;;;3.85;;
65373;SDS011;52070;53.760;9.678;2023-06-22T13:50:54;4.50;;;3.33;;
65373;SDS011;52070;53.760;9.678;2023-06-22T13:53:21;6.30;;;3.58;;
65373;SDS011;52070;53.760;9.678;2023-06-22T13:55:48;7.47;;;3.55;;
65373;SDS011;52070;53.760;9.678;2023-06-22T13:58:15;6.75;;;3.67;;
65373;SDS011;52070;53.760;9.678;2023-06-22T14:00:46;4.37;;;3.40;;
65373;SDS011;52070;53.760;9.678;2023-06-22T14:03:14;5.35;;;3.45;;
65373;SDS011;52070;53.760;9.678;2023-06-22T14:05:42;7.35;;;3.35;;
65373;SDS011;52070;53.760;9.678;2023-06-22T14:08:09;3.67;;;3.30;;
65373;SDS011;52070;53.760;9.678;2023-06-22T14:10:36;5.53;;;2.97;;
65373;SDS011;52070;53.760;9.678;2023-06-22T14:13:03;5.55;;;3.28;;
65373;SDS011;52070;53.760;9.678;2023-06-22T14:15:31;3.80;;;3.40;;
65373;SDS011;52070;53.760;9.678;2023-06-22T14:17:59;6.35;;;3.50;;
65373;SDS011;52070;53.760;9.678;2023-06-22T14:20:26;4.00;;;3.58;;
65373;SDS011;52070;53.760;9.678;2023-06-22T14:22:53;5.78;;;3.38;;
65373;SDS011;52070;53.760;9.678;2023-06-22T14:25:20;4.72;;;3.10;;
65373;SDS011;52070;53.760;9.678;2023-06-22T14:27:47;9.13;;;3.60;;
65373;SDS011;52070;53.760;9.678;2023-06-22T14:30:14;4.90;;;3.20;;
65373;SDS011;52070;53.760;9.678;2023-06-22T14:32:42;5.40;;;3.10;;
65373;SDS011;52070;53.760;9.678;2023-06-22T14:35:11;4.32;;;3.28;;
65373;SDS011;52070;53.760;9.678;2023-06-22T14:37:38;6.05;;;3.60;;
65373;SDS011;52070;53.760;9.678;2023-06-22T14:40:06;5.53;;;3.38;;
65373;SDS011;52070;53.760;9.678;2023-06-22T14:42:33;3.65;;;3.33;;
65373;SDS011;52070;53.760;9.678;2023-06-22T14:45:00;3.88;;;3.25;;
65373;SDS011;52070;53.760;9.678;2023-06-22T14:47:27;4.68;;;3.40;;
65373;SDS011;52070;53.760;9.678;2023-06-22T14:49:54;3.45;;;3.05;;
65373;SDS011;52070;53.760;9.678;2023-06-22T14:52:23;4.63;;;3.47;;
65373;SDS011;52070;53.760;9.678;2023-06-22T14:54:50;6.55;;;3.25;;